Nichiryu Maru — JG5632 — position and weather

sailwx.info

Track history (hours):
 
Tides and Currents Weather Stations Pressure Air Temp Water Temp Dewpoint Dewpoint Depression Visibility Wind Speed Wind Dir Waves Ship Positions

Nichiryu Maru

Last reported at 2016-Dec-09 08:14 UTC. Time now 2016-Dec-09 19:48 UTC.
Position N 34°36' E 134°54'.

Length 158 m; draft 6.5 m.

Type: Cargo ship. MMSI: 43100939.

Date/timePositionNaut miles runAvg speedWind from/ knotsBaromVisibWave heightAir tempDewpointWater temp
2016-Dec-09 08:14N 34°36' E 134°54'1217.3
2016-Dec-09 07:33N 34°35' E 135°09'7 6.6
2016-Dec-09 06:33N 34°41' E 135°13'0 0.0
2016-Dec-09 05:33N 34°41' E 135°13'0 0.0
2016-Dec-09 04:33N 34°41' E 135°13'5 4.9
2016-Dec-09 03:34N 34°37' E 135°17'2019.6
2016-Dec-09 02:33N 34°21' E 135°03'1818.3
2016-Dec-09 01:34N 34°03' E 135°00'23616.7
2016-Dec-08 11:26N 35°03' E 139°37'1416.3
2016-Dec-08 10:33N 35°15' E 139°46'7 7.2
2016-Dec-08 09:33N 35°19' E 139°39'0 0.0
2016-Dec-08 08:31N 35°19' E 139°39'0 0.0
2016-Dec-08 07:31N 35°19' E 139°39'0 0.0
2016-Dec-08 06:31N 35°19' E 139°39'0 0.0
2016-Dec-08 05:28N 35°19' E 139°39'0 0.0
2016-Dec-08 04:31N 35°19' E 139°39'0 0.2
2016-Dec-08 03:34N 35°19' E 139°39'9 9.1
2016-Dec-08 02:33N 35°12' E 139°47'  
2016-Dec-05 11:31N 35°05' E 139°41'1313.2
2016-Dec-05 10:34N 35°18' E 139°44'4 1.2
2016-Dec-05 07:11N 35°19' E 139°39'0 0.0
2016-Dec-05 05:23N 35°19' E 139°39'0 0.0
2016-Dec-05 04:05N 35°19' E 139°39'0 0.0
2016-Dec-05 03:29N 35°19' E 139°39'0 0.0
2016-Dec-05 02:17N 35°19' E 139°39'0 0.0
2016-Dec-05 00:26N 35°19' E 139°39'0 0.0
2016-Dec-04 23:32N 35°19' E 139°39'2 2.1
2016-Dec-04 22:34N 35°19' E 139°42'0 0.0
2016-Dec-04 21:32N 35°19' E 139°41'0 0.0
2016-Dec-04 20:32N 35°19' E 139°41'0 0.0
2016-Dec-04 19:32N 35°19' E 139°41'0 0.0
2016-Dec-04 18:32N 35°19' E 139°41'0 0.0
2016-Dec-04 17:32N 35°19' E 139°41'0 0.0
2016-Dec-04 16:32N 35°19' E 139°41'0 0.0
2016-Dec-04 15:32N 35°19' E 139°41'0 0.0
2016-Dec-04 14:32N 35°19' E 139°41'0 0.1
2016-Dec-04 13:32N 35°19' E 139°42'0 0.1
2016-Dec-04 12:32N 35°19' E 139°41'3 3.0
2016-Dec-04 11:34N 35°18' E 139°45'243 4.8
2016-Dec-02 08:33N 34°35' E 134°53'1413.8
2016-Dec-02 07:33N 34°36' E 135°10'6 5.8
2016-Dec-02 06:33N 34°41' E 135°13'0 0.0
2016-Dec-02 05:32N 34°41' E 135°13'0 0.1
2016-Dec-02 04:34N 34°41' E 135°14'1313.4
2016-Dec-02 03:34N 34°28' E 135°09'1918.7
2016-Dec-02 02:33N 34°11' E 134°59'23415.3
2016-Dec-01 11:12N 35°03' E 139°37'1116.3
2016-Dec-01 10:33N 35°11' E 139°45'9 9.1
2016-Dec-01 09:33N 35°19' E 139°39'0 0.0
2016-Dec-01 08:22N 35°19' E 139°39'0 0.0
2016-Dec-01 07:31N 35°19' E 139°39'0 0.0
2016-Dec-01 06:31N 35°19' E 139°39'0 0.0
2016-Dec-01 05:31N 35°19' E 139°39'0 0.0
2016-Dec-01 04:31N 35°19' E 139°39'0 0.1
2016-Dec-01 03:34N 35°19' E 139°39'9 9.1
2016-Dec-01 02:34N 35°13' E 139°47'  
Track history (hours):
 
Tides and Currents Weather Stations Pressure Air Temp Water Temp Dewpoint Dewpoint Depression Visibility Wind Speed Wind Dir Waves Ship Positions

Nichiryu Maru

Last reported at 2016-Dec-09 08:14 UTC. Time now 2016-Dec-09 19:48 UTC.
Position N 34°36' E 134°54'.

Length 158 m; draft 6.5 m.

Type: Cargo ship. MMSI: 43100939.

Date/timePositionNaut miles runAvg speedWind from/ knotsBaromVisibWave heightAir tempDewpointWater temp
2016-Dec-09 08:14N 34°36' E 134°54'1217.3
2016-Dec-09 07:33N 34°35' E 135°09'7 6.6
2016-Dec-09 06:33N 34°41' E 135°13'0 0.0
2016-Dec-09 05:33N 34°41' E 135°13'0 0.0
2016-Dec-09 04:33N 34°41' E 135°13'5 4.9
2016-Dec-09 03:34N 34°37' E 135°17'2019.6
2016-Dec-09 02:33N 34°21' E 135°03'1818.3
2016-Dec-09 01:34N 34°03' E 135°00'23616.7
2016-Dec-08 11:26N 35°03' E 139°37'1416.3
2016-Dec-08 10:33N 35°15' E 139°46'7 7.2
2016-Dec-08 09:33N 35°19' E 139°39'0 0.0
2016-Dec-08 08:31N 35°19' E 139°39'0 0.0
2016-Dec-08 07:31N 35°19' E 139°39'0 0.0
2016-Dec-08 06:31N 35°19' E 139°39'0 0.0
2016-Dec-08 05:28N 35°19' E 139°39'0 0.0
2016-Dec-08 04:31N 35°19' E 139°39'0 0.2
2016-Dec-08 03:34N 35°19' E 139°39'9 9.1
2016-Dec-08 02:33N 35°12' E 139°47'  
2016-Dec-05 11:31N 35°05' E 139°41'1313.2
2016-Dec-05 10:34N 35°18' E 139°44'4 1.2
2016-Dec-05 07:11N 35°19' E 139°39'0 0.0
2016-Dec-05 05:23N 35°19' E 139°39'0 0.0
2016-Dec-05 04:05N 35°19' E 139°39'0 0.0
2016-Dec-05 03:29N 35°19' E 139°39'0 0.0
2016-Dec-05 02:17N 35°19' E 139°39'0 0.0
2016-Dec-05 00:26N 35°19' E 139°39'0 0.0
2016-Dec-04 23:32N 35°19' E 139°39'2 2.1
2016-Dec-04 22:34N 35°19' E 139°42'0 0.0
2016-Dec-04 21:32N 35°19' E 139°41'0 0.0
2016-Dec-04 20:32N 35°19' E 139°41'0 0.0
2016-Dec-04 19:32N 35°19' E 139°41'0 0.0
2016-Dec-04 18:32N 35°19' E 139°41'0 0.0
2016-Dec-04 17:32N 35°19' E 139°41'0 0.0
2016-Dec-04 16:32N 35°19' E 139°41'0 0.0
2016-Dec-04 15:32N 35°19' E 139°41'0 0.0
2016-Dec-04 14:32N 35°19' E 139°41'0 0.1
2016-Dec-04 13:32N 35°19' E 139°42'0 0.1
2016-Dec-04 12:32N 35°19' E 139°41'3 3.0
2016-Dec-04 11:34N 35°18' E 139°45'243 4.8
2016-Dec-02 08:33N 34°35' E 134°53'1413.8
2016-Dec-02 07:33N 34°36' E 135°10'6 5.8
2016-Dec-02 06:33N 34°41' E 135°13'0 0.0
2016-Dec-02 05:32N 34°41' E 135°13'0 0.1
2016-Dec-02 04:34N 34°41' E 135°14'1313.4
2016-Dec-02 03:34N 34°28' E 135°09'1918.7
2016-Dec-02 02:33N 34°11' E 134°59'23415.3
2016-Dec-01 11:12N 35°03' E 139°37'1116.3
2016-Dec-01 10:33N 35°11' E 139°45'9 9.1
2016-Dec-01 09:33N 35°19' E 139°39'0 0.0
2016-Dec-01 08:22N 35°19' E 139°39'0 0.0
2016-Dec-01 07:31N 35°19' E 139°39'0 0.0
2016-Dec-01 06:31N 35°19' E 139°39'0 0.0
2016-Dec-01 05:31N 35°19' E 139°39'0 0.0
2016-Dec-01 04:31N 35°19' E 139°39'0 0.1
2016-Dec-01 03:34N 35°19' E 139°39'9 9.1
2016-Dec-01 02:34N 35°13' E 139°47'  

Dump ship's entire track history